Time;durP1;ratioP1;P1;durP2;ratioP2;P2;SDS_P1;SDS_P2;PMS_P1;PMS_P2;Temp;Humidity;BMP_temperature;BMP_pressure;BME280_temperature;BME280_humidity;BME280_pressure;Samples;Min_cycle;Max_cycle;Signal;HPM_P1;HPM_P2
2022/01/06 00:01:12;;;;;;;28.43;4.93;;;2.90;99.90;;;;;;5114936;28;20382;-77
2022/01/06 00:03:38;;;;;;;24.77;3.77;;;3.00;99.90;;;;;;5116244;28;20111;-78
2022/01/06 00:06:07;;;;;;;24.40;4.10;;;3.00;99.90;;;;;;5114854;28;20392;-78
2022/01/06 00:08:38;;;;;;;36.57;5.07;;;2.90;99.90;;;;;;5116193;28;20073;-77
2022/01/06 00:11:07;;;;;;;30.40;5.83;;;2.90;99.90;;;;;;5115038;28;20062;-78
2022/01/06 00:13:48;;;;;;;28.47;4.30;;;2.90;99.90;;;;;;5114678;28;20062;-78
2022/01/06 00:24:12;;;;;;;24.63;4.30;;;2.90;99.90;;;;;;5115890;28;20119;-77
2022/01/06 00:26:38;;;;;;;19.07;3.73;;;2.90;99.90;;;;;;5114530;28;20051;-78
2022/01/06 00:29:03;;;;;;;24.93;4.43;;;2.90;99.90;;;;;;5114302;28;20041;-78
2022/01/06 00:31:30;;;;;;;28.47;3.90;;;3.00;99.90;;;;;;5114050;28;20027;-78
2022/01/06 00:33:56;;;;;;;28.20;3.80;;;2.90;99.90;;;;;;5114235;28;20028;-78
2022/01/06 00:36:21;;;;;;;25.60;3.43;;;2.90;99.90;;;;;;5097214;28;20027;-77
2022/01/06 00:38:47;;;;;;;23.37;3.77;;;2.90;99.90;;;;;;5097071;28;20030;-78
2022/01/06 00:41:12;;;;;;;23.07;3.10;;;2.90;99.90;;;;;;5097100;28;20020;-77
2022/01/06 00:43:38;;;;;;;28.43;3.17;;;2.90;99.90;;;;;;5113948;28;20024;-78
2022/01/06 00:46:03;;;;;;;22.07;3.63;;;2.90;99.90;;;;;;5096970;28;20042;-77
2022/01/06 00:48:29;;;;;;;17.20;3.37;;;2.90;99.90;;;;;;5113753;28;20068;-77
2022/01/06 00:50:55;;;;;;;21.50;3.57;;;2.90;99.90;;;;;;5093761;28;20044;-77
2022/01/06 00:53:20;;;;;;;21.93;3.90;;;2.90;99.90;;;;;;5096546;28;20031;-77
2022/01/06 00:55:46;;;;;;;19.07;3.50;;;2.90;99.90;;;;;;5114495;28;20110;-77
2022/01/06 00:58:12;;;;;;;24.67;3.00;;;2.80;99.90;;;;;;5113746;28;20058;-77
2022/01/06 01:00:39;;;;;;;16.13;2.57;;;2.80;99.90;;;;;;5114623;28;20077;-77
2022/01/06 01:03:20;;;;;;;24.60;3.17;;;2.90;99.90;;;;;;5096712;28;20046;-77
2022/01/06 01:05:48;;;;;;;18.13;2.70;;;2.90;99.90;;;;;;5114382;28;20011;-77
2022/01/06 01:08:14;;;;;;;31.67;3.97;;;2.90;99.90;;;;;;5113205;28;20037;-77
2022/01/06 01:10:42;;;;;;;19.47;2.47;;;2.90;99.90;;;;;;5113551;28;20031;-77
2022/01/06 01:13:12;;;;;;;20.90;2.60;;;2.90;99.90;;;;;;5096197;28;20023;-77
2022/01/06 01:15:50;;;;;;;20.10;2.33;;;2.90;99.90;;;;;;5113356;28;20043;-77
2022/01/06 01:18:20;;;;;;;22.93;2.60;;;2.90;99.90;;;;;;5113186;28;20016;-77
2022/01/06 01:20:47;;;;;;;28.23;2.83;;;2.90;99.90;;;;;;5114372;28;20527;-77
2022/01/06 01:23:13;;;;;;;22.33;2.47;;;2.90;99.90;;;;;;5114352;28;20059;-77
2022/01/06 01:25:39;;;;;;;18.77;3.23;;;3.00;99.90;;;;;;5113074;28;20022;-77
2022/01/06 01:28:05;;;;;;;18.70;2.67;;;2.90;99.90;;;;;;5096180;28;20041;-77
2022/01/06 01:30:39;;;;;;;21.20;2.23;;;3.00;99.90;;;;;;5112849;28;20069;-77
2022/01/06 01:33:14;;;;;;;14.90;2.60;;;2.90;99.90;;;;;;5114345;28;20024;-77
2022/01/06 01:35:40;;;;;;;21.00;2.50;;;3.00;99.90;;;;;;5112867;28;20023;-78
2022/01/06 01:38:07;;;;;;;18.57;1.90;;;2.90;99.90;;;;;;5095854;28;20024;-77
2022/01/06 01:40:32;;;;;;;21.43;2.87;;;2.90;99.90;;;;;;5114013;28;20386;-77
2022/01/06 01:42:58;;;;;;;20.97;2.90;;;3.00;99.90;;;;;;5095696;28;20024;-78
2022/01/06 01:45:29;;;;;;;21.03;2.17;;;3.00;99.90;;;;;;5113959;28;20429;-78
2022/01/06 01:47:57;;;;;;;14.70;1.93;;;3.00;99.90;;;;;;5096082;28;20043;-78
2022/01/06 01:50:23;;;;;;;18.67;2.10;;;3.00;99.90;;;;;;5096269;28;20042;-77
2022/01/06 01:52:51;;;;;;;17.20;1.67;;;2.90;99.90;;;;;;5112717;28;20035;-77
2022/01/06 01:55:27;;;;;;;13.87;2.17;;;3.00;99.90;;;;;;5112570;28;20031;-77
2022/01/06 01:57:53;;;;;;;18.53;2.20;;;2.90;99.90;;;;;;5112520;28;20033;-77
2022/01/06 02:00:22;;;;;;;13.73;2.17;;;3.00;99.90;;;;;;5113857;28;20019;-77
2022/01/06 02:02:48;;;;;;;22.33;1.80;;;2.90;99.90;;;;;;5113897;28;20380;-77
2022/01/06 02:05:14;;;;;;;12.20;1.53;;;3.00;99.90;;;;;;5113966;28;20019;-77
2022/01/06 02:07:41;;;;;;;16.03;1.83;;;2.90;99.90;;;;;;5078698;28;20036;-77
2022/01/06 02:10:09;;;;;;;22.27;2.13;;;3.00;99.90;;;;;;5112450;28;20024;-77
2022/01/06 02:12:37;;;;;;;17.80;2.00;;;3.00;99.90;;;;;;5112402;28;20019;-77
2022/01/06 02:15:08;;;;;;;21.50;2.37;;;2.90;99.90;;;;;;5095540;28;20024;-77
2022/01/06 02:17:34;;;;;;;15.13;2.27;;;2.90;99.90;;;;;;5113405;28;20020;-77
2022/01/06 02:20:02;;;;;;;16.97;2.13;;;2.90;99.90;;;;;;5099731;28;20150;-77
2022/01/06 02:22:28;;;;;;;15.13;1.93;;;2.90;99.90;;;;;;5116724;28;20024;-77
2022/01/06 02:24:54;;;;;;;12.87;1.73;;;2.90;99.90;;;;;;5116639;28;20024;-77
2022/01/06 02:27:20;;;;;;;13.43;1.57;;;2.90;99.90;;;;;;5099484;28;20567;-77
2022/01/06 02:29:51;;;;;;;12.77;1.87;;;2.90;99.90;;;;;;5116493;28;20024;-77
2022/01/06 02:32:19;;;;;;;13.33;1.73;;;3.00;99.90;;;;;;5082701;28;20065;-77
2022/01/06 02:34:46;;;;;;;10.87;1.40;;;2.90;99.90;;;;;;5117702;28;20032;-78
2022/01/06 02:37:13;;;;;;;12.20;1.77;;;2.80;99.90;;;;;;5116132;28;20123;-77
2022/01/06 02:39:40;;;;;;;12.50;2.00;;;2.80;99.90;;;;;;5099279;28;20047;-77
2022/01/06 02:42:06;;;;;;;13.43;1.40;;;2.80;99.90;;;;;;5116393;28;20028;-77
2022/01/06 02:44:32;;;;;;;20.43;2.50;;;2.80;99.90;;;;;;5117524;28;20024;-77
2022/01/06 02:46:58;;;;;;;15.57;1.70;;;2.80;99.90;;;;;;5098964;28;20055;-77
2022/01/06 02:49:24;;;;;;;12.33;2.03;;;2.80;99.90;;;;;;5098983;28;20063;-77
2022/01/06 02:51:49;;;;;;;15.90;1.67;;;2.80;99.90;;;;;;5082148;28;20039;-77
2022/01/06 02:54:15;;;;;;;18.63;1.60;;;2.80;99.90;;;;;;5115953;28;20111;-77
2022/01/06 02:56:43;;;;;;;11.23;2.03;;;2.80;99.90;;;;;;5098797;28;20062;-77
2022/01/06 02:59:09;;;;;;;14.87;1.73;;;2.80;99.90;;;;;;5117195;28;20024;-77
2022/01/06 03:01:43;;;;;;;20.13;1.87;;;2.80;99.90;;;;;;5117195;28;20024;-77
2022/01/06 03:04:10;;;;;;;9.15;1.33;;;2.80;99.90;;;;;;5115879;28;20008;-77
2022/01/06 03:06:36;;;;;;;13.80;1.77;;;2.80;99.90;;;;;;5117060;28;20028;-77
2022/01/06 03:09:05;;;;;;;9.50;1.30;;;2.90;99.90;;;;;;5115542;28;20478;-77
2022/01/06 03:11:33;;;;;;;20.03;1.83;;;2.80;99.90;;;;;;5111109;28;20024;-77
2022/01/06 03:13:59;;;;;;;11.47;1.07;;;2.80;99.90;;;;;;5078626;28;20052;-77
2022/01/06 03:16:25;;;;;;;9.97;1.27;;;2.80;99.90;;;;;;5094686;28;20102;-77
2022/01/06 03:18:51;;;;;;;11.53;1.70;;;2.70;99.90;;;;;;5095376;28;20114;-78
2022/01/06 03:21:16;;;;;;;13.80;1.20;;;2.60;99.90;;;;;;5078173;28;20059;-77
2022/01/06 03:23:42;;;;;;;12.50;1.73;;;2.80;99.90;;;;;;5078269;28;20020;-77
2022/01/06 03:26:08;;;;;;;13.50;1.40;;;2.70;99.90;;;;;;5095403;28;20077;-77
2022/01/06 03:28:33;;;;;;;14.20;1.60;;;2.60;99.90;;;;;;5078383;28;20024;-77
2022/01/06 03:30:59;;;;;;;12.40;1.27;;;2.70;99.90;;;;;;5096374;28;20021;-77
2022/01/06 03:33:25;;;;;;;9.50;1.10;;;2.60;99.90;;;;;;5094970;28;20020;-77
2022/01/06 03:35:50;;;;;;;7.60;0.90;;;2.50;99.90;;;;;;5096447;28;20504;-77
2022/01/06 03:38:16;;;;;;;11.93;1.80;;;2.50;99.90;;;;;;5094923;28;20032;-77
2022/01/06 03:40:42;;;;;;;20.27;2.20;;;2.50;99.90;;;;;;5096575;28;20024;-77
2022/01/06 03:43:08;;;;;;;10.93;1.27;;;2.50;99.90;;;;;;5078568;28;20103;-77
2022/01/06 03:45:34;;;;;;;12.20;1.50;;;2.50;99.90;;;;;;5096016;28;20420;-77
2022/01/06 03:48:00;;;;;;;12.23;1.67;;;2.50;99.90;;;;;;5096146;28;20052;-77
2022/01/06 03:50:26;;;;;;;16.07;1.47;;;2.50;99.90;;;;;;5094633;28;20016;-77
2022/01/06 03:52:52;;;;;;;15.37;1.50;;;2.50;99.90;;;;;;5077709;28;20388;-78
2022/01/06 03:55:19;;;;;;;10.50;1.20;;;2.50;99.90;;;;;;5077813;28;20024;-77
2022/01/06 03:57:46;;;;;;;10.13;1.00;;;2.50;99.90;;;;;;5095888;28;20067;-77
2022/01/06 04:00:15;;;;;;;11.23;1.47;;;2.50;99.90;;;;;;5077712;28;20498;-77
2022/01/06 04:02:41;;;;;;;12.47;1.43;;;2.50;99.90;;;;;;5095550;28;20028;-77
2022/01/06 04:05:08;;;;;;;10.97;1.20;;;2.40;99.90;;;;;;5060851;28;20016;-77
2022/01/06 04:07:35;;;;;;;8.90;0.87;;;2.40;99.90;;;;;;5095390;28;20024;-77
2022/01/06 04:10:01;;;;;;;8.53;1.00;;;2.40;99.90;;;;;;5077353;28;20058;-77
2022/01/06 04:12:27;;;;;;;14.03;1.50;;;2.40;99.90;;;;;;5094438;28;20047;-77
2022/01/06 04:14:52;;;;;;;10.40;1.90;;;2.40;99.90;;;;;;5095551;28;20028;-77
2022/01/06 04:17:18;;;;;;;15.83;1.30;;;2.30;99.90;;;;;;5095426;28;20082;-77
2022/01/06 04:19:44;;;;;;;12.03;1.27;;;2.30;99.90;;;;;;5095441;28;20020;-77
2022/01/06 04:22:09;;;;;;;8.60;1.00;;;2.30;99.90;;;;;;5078219;28;20435;-77
2022/01/06 04:24:36;;;;;;;8.13;1.00;;;2.20;99.90;;;;;;5094035;28;20035;-77
2022/01/06 04:27:02;;;;;;;16.10;1.70;;;2.20;99.90;;;;;;5077494;28;20024;-77
2022/01/06 04:29:28;;;;;;;11.70;1.53;;;2.20;99.90;;;;;;5093810;28;20165;-77
2022/01/06 04:31:54;;;;;;;13.17;1.40;;;2.20;99.90;;;;;;5094883;28;20056;-78
2022/01/06 04:34:19;;;;;;;14.23;1.50;;;2.10;99.90;;;;;;5095209;28;20056;-78
2022/01/06 04:36:52;;;;;;;8.13;1.27;;;2.10;99.90;;;;;;5093773;28;20528;-78
2022/01/06 04:39:18;;;;;;;9.17;1.93;;;2.10;99.90;;;;;;5095262;28;20028;-77
2022/01/06 04:41:44;;;;;;;15.03;1.60;;;2.00;99.90;;;;;;5092945;28;20095;-77
2022/01/06 04:44:10;;;;;;;12.30;1.67;;;2.00;99.90;;;;;;5093832;28;20035;-77
2022/01/06 04:46:36;;;;;;;14.50;1.20;;;1.90;99.90;;;;;;5093683;28;20483;-78
2022/01/06 04:49:04;;;;;;;13.83;1.60;;;1.90;99.90;;;;;;5076632;28;20052;-77
2022/01/06 04:51:30;;;;;;;6.63;1.20;;;1.90;99.90;;;;;;5093828;28;20360;-77
2022/01/06 04:53:55;;;;;;;10.03;1.10;;;1.90;99.90;;;;;;5094644;28;20024;-77
2022/01/06 04:56:21;;;;;;;14.27;1.80;;;1.90;99.90;;;;;;5059663;28;20036;-78
2022/01/06 04:58:46;;;;;;;10.90;1.37;;;1.80;99.90;;;;;;5093286;28;20035;-77
2022/01/06 05:01:12;;;;;;;14.33;1.70;;;1.80;99.90;;;;;;5076566;28;20028;-77
2022/01/06 05:03:38;;;;;;;7.70;1.23;;;1.80;99.90;;;;;;5076533;28;20077;-78
2022/01/06 05:06:03;;;;;;;10.90;1.27;;;1.90;99.90;;;;;;5093205;28;20024;-78
2022/01/06 05:08:29;;;;;;;16.60;1.33;;;1.80;99.90;;;;;;5083329;28;20028;-77
2022/01/06 05:10:55;;;;;;;8.27;0.90;;;1.80;99.90;;;;;;5114673;28;20028;-77
2022/01/06 05:13:21;;;;;;;8.77;1.10;;;1.80;99.90;;;;;;5114493;28;20421;-77
2022/01/06 05:15:46;;;;;;;9.20;1.97;;;1.80;99.90;;;;;;5113419;28;20114;-77
2022/01/06 05:18:12;;;;;;;12.43;1.23;;;1.90;99.90;;;;;;5114365;28;20035;-77
2022/01/06 05:20:42;;;;;;;16.13;1.10;;;1.90;99.90;;;;;;5114536;28;20084;-77
2022/01/06 05:23:08;;;;;;;12.60;2.00;;;1.90;99.90;;;;;;5113647;28;20023;-77
2022/01/06 05:25:34;;;;;;;11.47;1.30;;;1.80;99.90;;;;;;5113347;28;20031;-77
2022/01/06 05:28:00;;;;;;;15.60;1.80;;;1.80;99.90;;;;;;5113082;28;20031;-77
2022/01/06 05:30:25;;;;;;;13.13;1.40;;;1.90;99.90;;;;;;5113106;28;20034;-78
2022/01/06 05:32:51;;;;;;;14.77;1.43;;;1.90;99.90;;;;;;5096048;28;20032;-77
2022/01/06 05:35:17;;;;;;;10.23;1.27;;;1.80;99.90;;;;;;5113025;28;20472;-77
2022/01/06 05:37:43;;;;;;;11.60;1.77;;;1.80;99.90;;;;;;5114085;28;20054;-77
2022/01/06 05:40:09;;;;;;;9.93;1.40;;;1.80;99.90;;;;;;5113081;28;20475;-77
2022/01/06 05:42:35;;;;;;;15.93;1.60;;;1.80;99.90;;;;;;5114002;28;20030;-77
2022/01/06 05:45:02;;;;;;;13.63;1.23;;;1.80;99.90;;;;;;5113252;28;20032;-77
2022/01/06 05:47:28;;;;;;;11.80;1.23;;;1.80;99.90;;;;;;5112816;28;20369;-77
2022/01/06 05:49:54;;;;;;;13.37;1.67;;;1.80;99.90;;;;;;5112742;28;20030;-77
2022/01/06 05:52:19;;;;;;;10.77;2.17;;;1.80;99.90;;;;;;5112777;28;20032;-77
2022/01/06 05:54:45;;;;;;;8.67;1.23;;;1.70;99.90;;;;;;5112600;28;20125;-77
2022/01/06 05:57:11;;;;;;;8.50;1.20;;;1.70;99.90;;;;;;5113993;28;20538;-77
2022/01/06 05:59:37;;;;;;;10.77;1.27;;;1.70;99.90;;;;;;5112877;28;20019;-78
2022/01/06 06:02:03;;;;;;;13.23;1.03;;;1.70;99.90;;;;;;5095778;28;20077;-77
2022/01/06 06:04:28;;;;;;;9.10;1.50;;;1.70;99.90;;;;;;5113950;28;20099;-77
2022/01/06 06:06:54;;;;;;;15.37;1.50;;;1.80;99.90;;;;;;5112345;28;20059;-77
2022/01/06 06:09:19;;;;;;;11.20;1.20;;;1.70;99.90;;;;;;5112757;28;20028;-78
2022/01/06 06:11:45;;;;;;;9.90;1.17;;;1.70;99.90;;;;;;5095625;28;20051;-77
2022/01/06 06:14:11;;;;;;;11.33;1.20;;;1.70;99.90;;;;;;5112871;28;20442;-78
2022/01/06 06:16:36;;;;;;;8.73;1.27;;;1.70;99.90;;;;;;5095318;28;20028;-77
2022/01/06 06:19:02;;;;;;;12.67;1.73;;;1.70;99.90;;;;;;5113812;28;20093;-77
2022/01/06 06:21:28;;;;;;;10.70;1.40;;;1.70;99.90;;;;;;5095483;28;20034;-78
2022/01/06 06:23:53;;;;;;;10.87;1.50;;;1.80;99.90;;;;;;5095640;28;20031;-78
2022/01/06 06:26:19;;;;;;;13.27;1.53;;;1.70;99.90;;;;;;5095722;28;20054;-78
2022/01/06 06:28:44;;;;;;;9.10;1.07;;;1.60;99.90;;;;;;5113528;28;20026;-78
2022/01/06 06:31:10;;;;;;;8.53;1.20;;;1.70;99.90;;;;;;5112434;28;20054;-78
2022/01/06 06:33:36;;;;;;;16.37;1.00;;;1.60;99.90;;;;;;5112258;28;20030;-77
2022/01/06 06:36:02;;;;;;;13.70;1.20;;;1.60;99.90;;;;;;5091652;28;20032;-77
2022/01/06 06:38:28;;;;;;;7.97;1.20;;;1.60;99.90;;;;;;5110392;28;20045;-77
2022/01/06 06:40:54;;;;;;;8.73;1.17;;;1.60;99.90;;;;;;5112782;28;20387;-78
2022/01/06 06:43:20;;;;;;;8.53;1.20;;;1.60;99.90;;;;;;5112358;28;20028;-77
2022/01/06 06:45:45;;;;;;;8.37;1.03;;;1.60;99.90;;;;;;5107430;28;20021;-77
2022/01/06 06:48:12;;;;;;;13.73;1.43;;;1.60;99.90;;;;;;5076835;28;20040;-77
2022/01/06 06:50:38;;;;;;;19.73;1.67;;;1.60;99.90;;;;;;5111258;28;20019;-77
2022/01/06 06:53:03;;;;;;;11.93;1.70;;;1.60;99.90;;;;;;5112017;28;20483;-78
2022/01/06 06:55:30;;;;;;;14.20;1.80;;;1.60;99.90;;;;;;5111358;28;20458;-77
2022/01/06 06:57:55;;;;;;;12.67;1.00;;;1.60;99.90;;;;;;5111389;28;20487;-77
2022/01/06 07:00:21;;;;;;;9.90;1.33;;;1.50;99.90;;;;;;5111178;28;20012;-78
2022/01/06 07:02:47;;;;;;;12.30;1.40;;;1.50;99.90;;;;;;5111138;28;20020;-78
2022/01/06 07:05:15;;;;;;;12.77;1.67;;;1.50;99.90;;;;;;5088741;28;20038;-77
2022/01/06 07:07:41;;;;;;;8.23;1.13;;;1.60;99.90;;;;;;5113099;28;20115;-78
2022/01/06 07:10:08;;;;;;;6.37;1.40;;;1.50;99.90;;;;;;5117056;28;20019;-78
2022/01/06 07:12:38;;;;;;;9.03;1.53;;;1.50;99.90;;;;;;5115773;28;20068;-78
2022/01/06 07:15:06;;;;;;;17.33;3.30;;;1.50;99.90;;;;;;5115481;28;20023;-80
2022/01/06 07:17:31;;;;;;;12.33;1.70;;;1.50;99.90;;;;;;5082277;28;20026;-79
2022/01/06 07:19:57;;;;;;;12.93;1.97;;;1.50;99.90;;;;;;5098731;28;20391;-79
2022/01/06 07:22:23;;;;;;;12.07;2.20;;;1.40;99.90;;;;;;5098417;28;20439;-79
2022/01/06 07:24:48;;;;;;;10.53;2.10;;;1.40;99.90;;;;;;5115460;28;20027;-78
2022/01/06 07:27:14;;;;;;;10.60;2.10;;;1.40;99.90;;;;;;5115282;28;20421;-77
2022/01/06 07:29:39;;;;;;;11.23;1.83;;;1.40;99.90;;;;;;5098197;28;20081;-77
2022/01/06 07:32:05;;;;;;;9.27;1.37;;;1.40;99.90;;;;;;5116424;28;20479;-77
2022/01/06 07:34:31;;;;;;;12.77;2.87;;;1.40;99.90;;;;;;5098298;28;20050;-77
2022/01/06 07:36:57;;;;;;;14.33;1.90;;;1.40;99.90;;;;;;5098138;28;20063;-77
2022/01/06 07:39:22;;;;;;;13.07;2.40;;;1.40;99.90;;;;;;5080811;28;20037;-78
2022/01/06 07:41:48;;;;;;;12.83;1.67;;;1.30;99.90;;;;;;5115694;28;20421;-78
2022/01/06 07:44:13;;;;;;;9.50;2.13;;;1.30;99.90;;;;;;5115140;28;20078;-78
2022/01/06 07:46:41;;;;;;;13.07;1.83;;;1.30;99.90;;;;;;5094755;28;20058;-78
2022/01/06 07:49:10;;;;;;;11.27;2.43;;;1.40;99.90;;;;;;5113997;28;20044;-78
2022/01/06 07:51:36;;;;;;;9.90;1.60;;;1.40;99.90;;;;;;5098226;28;20383;-78
2022/01/06 07:54:02;;;;;;;9.40;1.80;;;1.40;99.90;;;;;;5097714;28;20039;-78
2022/01/06 07:56:28;;;;;;;14.63;2.03;;;1.40;99.90;;;;;;5113272;28;20039;-78
2022/01/06 07:58:54;;;;;;;14.23;2.10;;;1.40;99.90;;;;;;5099840;28;20024;-77
2022/01/06 08:01:20;;;;;;;9.93;2.00;;;1.30;99.90;;;;;;5092446;28;20161;-78
2022/01/06 08:03:46;;;;;;;13.10;1.80;;;1.40;99.90;;;;;;5108024;28;20114;-78
2022/01/06 08:06:12;;;;;;;13.07;2.03;;;1.40;99.90;;;;;;5114694;28;20032;-78
2022/01/06 08:08:39;;;;;;;15.60;2.60;;;1.40;99.90;;;;;;5097604;28;20028;-78
2022/01/06 08:11:04;;;;;;;14.43;2.37;;;1.40;99.90;;;;;;5115800;28;20024;-78
2022/01/06 08:13:30;;;;;;;10.53;2.40;;;1.50;99.90;;;;;;5115590;28;20492;-78
2022/01/06 08:15:56;;;;;;;16.53;3.37;;;1.50;99.90;;;;;;5113201;28;20034;-78
2022/01/06 08:18:22;;;;;;;17.83;3.17;;;1.50;99.90;;;;;;5097199;28;20031;-77
2022/01/06 08:20:47;;;;;;;12.77;2.47;;;1.50;99.90;;;;;;5114643;28;20076;-77
2022/01/06 08:23:13;;;;;;;12.97;2.47;;;1.50;99.90;;;;;;5114459;28;20468;-77
2022/01/06 08:25:39;;;;;;;14.20;2.93;;;1.50;99.90;;;;;;5114229;28;20077;-78
2022/01/06 08:28:05;;;;;;;9.50;2.37;;;1.50;99.90;;;;;;5114500;28;20099;-77
2022/01/06 08:30:31;;;;;;;8.07;2.00;;;1.60;99.90;;;;;;5113993;28;20024;-77
2022/01/06 08:32:57;;;;;;;14.87;2.83;;;1.60;99.90;;;;;;5113905;28;20027;-77
2022/01/06 08:35:23;;;;;;;13.03;2.47;;;1.60;99.90;;;;;;5097070;28;20039;-77
2022/01/06 08:37:49;;;;;;;14.00;2.43;;;1.60;99.90;;;;;;5079419;28;20475;-77
2022/01/06 08:40:16;;;;;;;9.53;1.90;;;1.70;99.90;;;;;;5114973;28;20466;-77
2022/01/06 08:42:42;;;;;;;16.17;1.80;;;1.70;99.90;;;;;;5114140;28;20036;-77
2022/01/06 08:45:09;;;;;;;9.57;1.87;;;1.80;99.90;;;;;;5115206;28;20027;-77
2022/01/06 08:47:35;;;;;;;12.07;2.20;;;1.70;99.90;;;;;;5113340;28;20435;-77
2022/01/06 08:50:00;;;;;;;9.87;2.10;;;1.80;99.90;;;;;;5114335;28;20028;-76
2022/01/06 08:52:27;;;;;;;16.00;1.90;;;1.80;99.90;;;;;;5113861;28;20019;-76
2022/01/06 08:54:53;;;;;;;14.30;2.60;;;1.90;99.90;;;;;;5115001;28;20088;-77
2022/01/06 08:57:19;;;;;;;9.07;2.67;;;1.90;99.90;;;;;;5114940;28;20031;-77
2022/01/06 08:59:45;;;;;;;12.07;2.23;;;2.00;99.90;;;;;;5079607;28;20106;-76
2022/01/06 09:02:11;;;;;;;10.87;2.00;;;2.00;99.90;;;;;;5113309;28;20023;-77
2022/01/06 09:04:36;;;;;;;10.70;3.80;;;2.10;99.90;;;;;;5113365;28;20424;-77
2022/01/06 09:07:03;;;;;;;18.73;2.53;;;2.10;99.90;;;;;;5113604;28;20127;-77
2022/01/06 09:09:29;;;;;;;12.53;2.33;;;2.10;99.90;;;;;;5096455;28;20392;-77
2022/01/06 09:11:55;;;;;;;8.73;2.13;;;2.20;99.90;;;;;;5096592;28;20093;-77
2022/01/06 09:14:22;;;;;;;21.10;2.73;;;2.30;99.90;;;;;;5114585;28;20032;-77
2022/01/06 09:16:49;;;;;;;9.73;1.77;;;2.30;99.90;;;;;;5113331;28;20479;-77
2022/01/06 09:19:15;;;;;;;11.70;1.90;;;2.40;99.90;;;;;;5113260;28;20020;-77
2022/01/06 09:21:41;;;;;;;8.17;1.73;;;2.50;99.90;;;;;;5114134;28;20361;-77
2022/01/06 09:24:07;;;;;;;7.70;1.50;;;2.50;99.90;;;;;;5112764;28;20019;-77
2022/01/06 09:26:37;;;;;;;12.20;1.67;;;2.60;99.90;;;;;;5112702;28;20031;-77
2022/01/06 09:29:05;;;;;;;12.73;2.10;;;2.70;99.90;;;;;;5113978;28;20016;-76
2022/01/06 09:31:33;;;;;;;9.53;1.97;;;2.70;99.90;;;;;;5114214;28;20031;-77
2022/01/06 09:33:59;;;;;;;14.50;2.00;;;2.90;99.90;;;;;;5112450;28;20119;-77
2022/01/06 09:36:27;;;;;;;11.20;2.43;;;3.00;99.90;;;;;;5114021;28;20056;-76
2022/01/06 09:38:54;;;;;;;14.87;2.20;;;3.10;99.90;;;;;;5113763;28;20016;-78
2022/01/06 09:41:20;;;;;;;13.53;2.50;;;3.30;99.90;;;;;;5113890;28;20107;-78
2022/01/06 09:43:47;;;;;;;15.60;2.20;;;3.60;99.90;;;;;;5113958;28;20058;-78
2022/01/06 09:46:13;;;;;;;14.23;2.53;;;3.90;99.90;;;;;;5109843;28;20021;-78
2022/01/06 09:48:40;;;;;;;10.63;2.50;;;4.30;99.90;;;;;;5113547;28;20055;-78
2022/01/06 09:51:08;;;;;;;8.97;2.17;;;4.60;99.90;;;;;;5112736;28;20096;-79
2022/01/06 09:53:33;;;;;;;10.27;1.90;;;5.10;99.90;;;;;;5095928;28;20472;-78
2022/01/06 09:55:59;;;;;;;8.70;1.57;;;5.50;99.90;;;;;;5095949;28;20029;-78
2022/01/06 09:58:27;;;;;;;11.30;2.07;;;5.90;99.90;;;;;;5095668;28;20125;-78
2022/01/06 10:00:55;;;;;;;10.70;1.90;;;6.20;99.90;;;;;;5112358;28;20019;-78
2022/01/06 10:03:31;;;;;;;10.03;1.93;;;6.70;99.90;;;;;;5112285;28;20031;-78
2022/01/06 10:06:09;;;;;;;10.25;1.63;;;7.30;99.90;;;;;;5112474;28;20093;-79
2022/01/06 10:08:35;;;;;;;7.18;1.63;;;8.00;99.90;;;;;;5112607;28;20016;-79
2022/01/06 10:11:14;;;;;;;5.43;1.40;;;8.60;99.90;;;;;;5113874;28;20020;-79
2022/01/06 10:13:42;;;;;;;5.82;1.17;;;9.20;99.90;;;;;;5112537;28;20027;-79
2022/01/06 10:16:29;;;;;;;8.15;1.40;;;9.80;99.90;;;;;;5112243;28;20026;-77
2022/01/06 10:19:00;;;;;;;5.30;1.42;;;10.40;99.90;;;;;;5075410;28;20113;-79
2022/01/06 10:21:31;;;;;;;7.55;1.40;;;10.80;99.90;;;;;;5092340;28;20020;-78
2022/01/06 10:24:06;;;;;;;5.60;1.27;;;11.30;99.90;;;;;;5092469;28;20043;-78
2022/01/06 10:26:33;;;;;;;5.50;1.13;;;11.60;99.90;;;;;;5105495;28;20031;-79
2022/01/06 10:28:59;;;;;;;7.55;1.38;;;11.90;99.90;;;;;;5095709;28;20043;-78
2022/01/06 10:31:30;;;;;;;5.30;1.13;;;12.20;99.90;;;;;;5113396;28;20114;-78
2022/01/06 10:33:56;;;;;;;6.13;1.40;;;12.40;99.90;;;;;;5112226;28;20386;-78
2022/01/06 10:36:32;;;;;;;7.18;1.15;;;12.50;99.90;;;;;;5113249;28;20027;-78
2022/01/06 10:39:00;;;;;;;6.80;1.77;;;12.70;99.90;;;;;;5112859;28;20118;-78
2022/01/06 10:41:27;;;;;;;8.27;1.30;;;12.90;99.90;;;;;;5116361;28;20103;-78
2022/01/06 10:43:58;;;;;;;9.90;1.40;;;12.80;99.20;;;;;;5099920;28;20044;-78
2022/01/06 10:46:31;;;;;;;10.05;1.50;;;12.70;99.30;;;;;;5117528;28;20095;-79
2022/01/06 10:49:05;;;;;;;7.90;1.67;;;12.50;98.40;;;;;;5115897;28;20040;-78
2022/01/06 10:51:34;;;;;;;9.82;1.63;;;12.40;97.40;;;;;;5117438;28;20032;-78
2022/01/06 10:53:59;;;;;;;8.18;1.50;;;12.10;96.30;;;;;;5117418;28;20055;-78
2022/01/06 10:56:27;;;;;;;9.70;1.45;;;12.00;94.90;;;;;;5082147;28;20026;-79
2022/01/06 10:58:58;;;;;;;7.30;1.48;;;11.90;94.80;;;;;;5115950;28;20112;-78
2022/01/06 11:01:24;;;;;;;8.35;1.20;;;11.80;94.50;;;;;;5117226;28;20065;-78
2022/01/06 11:03:49;;;;;;;8.27;1.30;;;11.90;94.40;;;;;;5116017;28;20023;-78
2022/01/06 11:06:15;;;;;;;10.55;1.40;;;12.00;94.70;;;;;;5116900;28;20028;-78
2022/01/06 11:08:42;;;;;;;4.90;1.13;;;12.30;93.70;;;;;;5115357;28;20364;-78
2022/01/06 11:13:36;;;;;;;9.38;1.75;;;12.60;92.40;;;;;;5116738;28;20407;-78
2022/01/06 11:16:03;;;;;;;11.70;1.33;;;12.80;91.50;;;;;;5116694;28;20028;-78
2022/01/06 11:18:29;;;;;;;8.50;1.67;;;13.00;91.70;;;;;;5115448;28;20142;-78
2022/01/06 11:21:13;;;;;;;7.35;1.77;;;13.10;90.50;;;;;;5115529;28;20028;-79
2022/01/06 11:23:39;;;;;;;6.68;1.48;;;13.10;89.40;;;;;;5103509;28;20016;-79
2022/01/06 11:26:12;;;;;;;3.50;0.88;;;13.20;89.10;;;;;;5109493;28;20019;-79
2022/01/06 11:28:43;;;;;;;5.22;1.08;;;13.60;87.20;;;;;;5116079;28;20039;-79
2022/01/06 11:31:16;;;;;;;7.03;1.50;;;13.90;85.50;;;;;;5109370;28;20424;-79
2022/01/06 11:33:43;;;;;;;8.05;1.50;;;13.90;83.10;;;;;;5094297;28;20032;-78
2022/01/06 11:36:30;;;;;;;9.00;1.92;;;13.90;81.60;;;;;;5099837;28;20040;-79
2022/01/06 11:38:58;;;;;;;6.90;1.30;;;13.80;79.50;;;;;;5095714;28;20496;-78
2022/01/06 11:41:36;;;;;;;7.75;1.85;;;13.80;79.30;;;;;;5108101;28;20033;-79
2022/01/06 11:44:02;;;;;;;10.48;1.80;;;13.70;77.50;;;;;;5116069;28;20084;-79
2022/01/06 11:46:50;;;;;;;6.60;1.67;;;13.60;75.80;;;;;;5113932;28;20128;-79
2022/01/06 11:49:32;;;;;;;8.27;1.58;;;13.40;76.60;;;;;;5114572;28;20028;-79
2022/01/06 11:52:07;;;;;;;10.90;1.77;;;13.30;77.50;;;;;;5116022;28;20028;-79
2022/01/06 11:54:44;;;;;;;10.00;2.03;;;13.20;76.30;;;;;;5114708;28;20408;-79
2022/01/06 11:57:09;;;;;;;7.82;1.40;;;13.10;75.80;;;;;;5094278;28;20032;-79
2022/01/06 11:59:37;;;;;;;9.98;2.20;;;13.10;76.60;;;;;;5094431;28;20473;-79
2022/01/06 12:02:04;;;;;;;10.98;1.85;;;13.20;76.40;;;;;;5094878;28;20016;-79
2022/01/06 12:04:29;;;;;;;7.03;1.85;;;13.40;76.50;;;;;;5087281;28;20032;-79
2022/01/06 12:07:05;;;;;;;10.35;2.15;;;13.60;77.10;;;;;;5080740;28;20384;-79
2022/01/06 12:09:31;;;;;;;10.48;1.90;;;14.00;76.20;;;;;;5115761;28;20062;-80
2022/01/06 12:12:00;;;;;;;10.43;1.73;;;14.30;76.70;;;;;;5115813;28;20027;-80
2022/01/06 12:14:27;;;;;;;7.50;1.58;;;14.50;76.50;;;;;;5115824;28;20581;-79
2022/01/06 12:17:00;;;;;;;9.18;1.70;;;14.80;75.70;;;;;;5115750;28;20031;-80
2022/01/06 12:19:26;;;;;;;9.82;1.55;;;15.20;75.60;;;;;;5115126;28;20042;-80
2022/01/06 12:21:52;;;;;;;7.90;1.92;;;15.60;74.30;;;;;;5097138;28;20035;-80
2022/01/06 12:24:18;;;;;;;8.85;1.73;;;15.90;72.70;;;;;;5115466;28;20023;-80
2022/01/06 12:26:44;;;;;;;7.35;1.60;;;16.20;70.80;;;;;;5114552;28;20475;-79
2022/01/06 12:29:17;;;;;;;6.75;1.38;;;16.50;70.00;;;;;;5115707;28;20031;-77
2022/01/06 12:31:43;;;;;;;7.78;1.90;;;16.70;69.00;;;;;;5115641;28;20020;-79
2022/01/06 12:34:11;;;;;;;9.45;2.17;;;17.00;68.70;;;;;;5115518;28;20087;-79
2022/01/06 12:36:40;;;;;;;9.10;1.65;;;17.20;67.30;;;;;;5097151;28;20031;-76
2022/01/06 12:39:15;;;;;;;10.32;2.13;;;17.60;67.40;;;;;;5114459;28;20032;-76
2022/01/06 12:41:41;;;;;;;8.98;1.95;;;17.70;65.70;;;;;;5115219;28;20027;-77
2022/01/06 12:44:08;;;;;;;10.25;1.75;;;18.00;65.40;;;;;;5096859;28;20173;-76
2022/01/06 12:46:41;;;;;;;8.88;1.48;;;18.30;64.30;;;;;;5097278;28;20031;-77
2022/01/06 12:49:08;;;;;;;11.57;1.60;;;18.40;61.70;;;;;;5114275;28;20093;-79
2022/01/06 12:51:36;;;;;;;10.48;1.83;;;18.30;61.30;;;;;;5115021;28;20102;-79
2022/01/06 12:54:30;;;;;;;10.35;2.38;;;18.40;60.80;;;;;;5113648;28;20515;-78
2022/01/06 12:56:57;;;;;;;9.03;1.40;;;18.60;59.90;;;;;;5113378;28;20115;-79
2022/01/06 12:59:33;;;;;;;15.57;2.00;;;18.60;59.10;;;;;;5113422;28;20280;-79